sensor_id;sensor_type;location;lat;lon;timestamp;P1;durP1;ratioP1;P2;durP2;ratioP2
29662;SDS011;16578;53.266;7.920;2023-05-08T00:00:21;6.35;;;5.70;;
29662;SDS011;16578;53.266;7.920;2023-05-08T00:02:46;6.15;;;5.43;;
29662;SDS011;16578;53.266;7.920;2023-05-08T00:05:12;6.78;;;5.28;;
29662;SDS011;16578;53.266;7.920;2023-05-08T00:07:38;5.60;;;4.72;;
29662;SDS011;16578;53.266;7.920;2023-05-08T00:10:04;5.60;;;5.10;;
29662;SDS011;16578;53.266;7.920;2023-05-08T00:12:30;5.25;;;4.75;;
29662;SDS011;16578;53.266;7.920;2023-05-08T00:14:56;5.38;;;4.82;;
29662;SDS011;16578;53.266;7.920;2023-05-08T00:17:21;5.47;;;4.97;;
29662;SDS011;16578;53.266;7.920;2023-05-08T00:19:47;5.90;;;5.00;;
29662;SDS011;16578;53.266;7.920;2023-05-08T00:22:13;5.68;;;5.10;;
29662;SDS011;16578;53.266;7.920;2023-05-08T00:24:38;5.13;;;4.72;;
29662;SDS011;16578;53.266;7.920;2023-05-08T00:27:04;5.93;;;5.32;;
29662;SDS011;16578;53.266;7.920;2023-05-08T00:29:32;5.88;;;5.28;;
29662;SDS011;16578;53.266;7.920;2023-05-08T00:31:58;7.18;;;5.47;;
29662;SDS011;16578;53.266;7.920;2023-05-08T00:34:23;6.10;;;5.35;;
29662;SDS011;16578;53.266;7.920;2023-05-08T00:36:49;5.95;;;5.45;;
29662;SDS011;16578;53.266;7.920;2023-05-08T00:39:15;6.07;;;5.57;;
29662;SDS011;16578;53.266;7.920;2023-05-08T00:41:40;6.05;;;5.47;;
29662;SDS011;16578;53.266;7.920;2023-05-08T00:44:06;6.10;;;5.43;;
29662;SDS011;16578;53.266;7.920;2023-05-08T00:46:32;6.45;;;5.32;;
29662;SDS011;16578;53.266;7.920;2023-05-08T00:48:58;6.25;;;5.65;;
29662;SDS011;16578;53.266;7.920;2023-05-08T00:51:23;6.82;;;6.22;;
29662;SDS011;16578;53.266;7.920;2023-05-08T00:53:50;7.00;;;5.80;;
29662;SDS011;16578;53.266;7.920;2023-05-08T00:56:16;6.35;;;5.75;;
29662;SDS011;16578;53.266;7.920;2023-05-08T00:58:44;6.15;;;5.45;;
29662;SDS011;16578;53.266;7.920;2023-05-08T01:01:12;6.43;;;5.82;;
29662;SDS011;16578;53.266;7.920;2023-05-08T01:03:38;7.20;;;6.50;;
29662;SDS011;16578;53.266;7.920;2023-05-08T01:06:04;6.18;;;5.68;;
29662;SDS011;16578;53.266;7.920;2023-05-08T01:08:30;6.63;;;6.03;;
29662;SDS011;16578;53.266;7.920;2023-05-08T01:13:35;7.35;;;6.65;;
29662;SDS011;16578;53.266;7.920;2023-05-08T01:16:13;7.00;;;6.40;;
29662;SDS011;16578;53.266;7.920;2023-05-08T01:18:45;6.80;;;6.20;;
29662;SDS011;16578;53.266;7.920;2023-05-08T01:21:22;7.25;;;6.65;;
29662;SDS011;16578;53.266;7.920;2023-05-08T01:24:18;7.78;;;6.97;;
29662;SDS011;16578;53.266;7.920;2023-05-08T01:32:45;7.35;;;6.65;;
29662;SDS011;16578;53.266;7.920;2023-05-08T01:35:20;9.23;;;6.43;;
29662;SDS011;16578;53.266;7.920;2023-05-08T01:38:02;7.75;;;6.95;;
29662;SDS011;16578;53.266;7.920;2023-05-08T01:40:36;7.63;;;6.93;;
29662;SDS011;16578;53.266;7.920;2023-05-08T01:43:38;8.20;;;7.43;;
29662;SDS011;16578;53.266;7.920;2023-05-08T01:46:23;8.00;;;7.20;;
29662;SDS011;16578;53.266;7.920;2023-05-08T01:51:45;7.50;;;6.75;;
29662;SDS011;16578;53.266;7.920;2023-05-08T01:54:20;8.25;;;7.45;;
29662;SDS011;16578;53.266;7.920;2023-05-08T01:56:48;8.10;;;7.30;;
29662;SDS011;16578;53.266;7.920;2023-05-08T01:59:16;7.78;;;7.03;;
29662;SDS011;16578;53.266;7.920;2023-05-08T02:01:45;7.70;;;6.97;;
29662;SDS011;16578;53.266;7.920;2023-05-08T02:04:13;8.45;;;7.65;;
29662;SDS011;16578;53.266;7.920;2023-05-08T02:06:40;8.20;;;7.43;;
29662;SDS011;16578;53.266;7.920;2023-05-08T02:09:07;9.30;;;8.45;;
29662;SDS011;16578;53.266;7.920;2023-05-08T02:11:34;7.90;;;7.20;;
29662;SDS011;16578;53.266;7.920;2023-05-08T02:14:01;8.38;;;7.57;;
29662;SDS011;16578;53.266;7.920;2023-05-08T02:16:28;7.93;;;7.15;;
29662;SDS011;16578;53.266;7.920;2023-05-08T02:18:55;8.85;;;8.00;;
29662;SDS011;16578;53.266;7.920;2023-05-08T02:23:50;7.93;;;7.13;;
29662;SDS011;16578;53.266;7.920;2023-05-08T02:26:18;8.20;;;7.05;;
29662;SDS011;16578;53.266;7.920;2023-05-08T02:28:45;8.15;;;7.35;;
29662;SDS011;16578;53.266;7.920;2023-05-08T02:31:13;8.83;;;7.50;;
29662;SDS011;16578;53.266;7.920;2023-05-08T02:33:40;8.00;;;7.30;;
29662;SDS011;16578;53.266;7.920;2023-05-08T02:36:08;8.38;;;7.57;;
29662;SDS011;16578;53.266;7.920;2023-05-08T02:38:37;9.10;;;7.70;;
29662;SDS011;16578;53.266;7.920;2023-05-08T02:41:05;8.30;;;7.50;;
29662;SDS011;16578;53.266;7.920;2023-05-08T02:43:31;8.10;;;7.30;;
29662;SDS011;16578;53.266;7.920;2023-05-08T02:48:39;8.80;;;7.25;;
29662;SDS011;16578;53.266;7.920;2023-05-08T02:51:25;8.80;;;7.65;;
29662;SDS011;16578;53.266;7.920;2023-05-08T02:54:16;7.72;;;7.03;;
29662;SDS011;16578;53.266;7.920;2023-05-08T02:57:20;7.93;;;7.18;;
29662;SDS011;16578;53.266;7.920;2023-05-08T02:59:52;8.13;;;7.32;;
29662;SDS011;16578;53.266;7.920;2023-05-08T03:05:31;8.93;;;7.93;;
29662;SDS011;16578;53.266;7.920;2023-05-08T03:07:54;8.23;;;7.40;;
29662;SDS011;16578;53.266;7.920;2023-05-08T03:10:24;8.25;;;7.45;;
29662;SDS011;16578;53.266;7.920;2023-05-08T03:12:55;8.63;;;7.72;;
29662;SDS011;16578;53.266;7.920;2023-05-08T03:15:32;9.48;;;8.52;;
29662;SDS011;16578;53.266;7.920;2023-05-08T03:18:05;9.30;;;8.38;;
29662;SDS011;16578;53.266;7.920;2023-05-08T03:20:34;8.95;;;8.15;;
29662;SDS011;16578;53.266;7.920;2023-05-08T03:23:07;9.55;;;8.65;;
29662;SDS011;16578;53.266;7.920;2023-05-08T03:25:34;9.45;;;8.35;;
29662;SDS011;16578;53.266;7.920;2023-05-08T03:28:02;9.35;;;8.43;;
29662;SDS011;16578;53.266;7.920;2023-05-08T03:30:30;9.27;;;8.38;;
29662;SDS011;16578;53.266;7.920;2023-05-08T03:32:59;9.35;;;8.45;;
29662;SDS011;16578;53.266;7.920;2023-05-08T03:35:27;9.43;;;8.52;;
29662;SDS011;16578;53.266;7.920;2023-05-08T03:37:54;9.18;;;8.27;;
29662;SDS011;16578;53.266;7.920;2023-05-08T03:40:20;9.30;;;8.40;;
29662;SDS011;16578;53.266;7.920;2023-05-08T03:42:46;9.85;;;8.85;;
29662;SDS011;16578;53.266;7.920;2023-05-08T03:45:12;9.75;;;8.82;;
29662;SDS011;16578;53.266;7.920;2023-05-08T03:47:40;9.57;;;8.65;;
29662;SDS011;16578;53.266;7.920;2023-05-08T03:50:05;10.02;;;9.10;;
29662;SDS011;16578;53.266;7.920;2023-05-08T03:52:33;10.43;;;9.32;;
29662;SDS011;16578;53.266;7.920;2023-05-08T03:54:59;10.85;;;9.85;;
29662;SDS011;16578;53.266;7.920;2023-05-08T03:57:26;10.38;;;9.23;;
29662;SDS011;16578;53.266;7.920;2023-05-08T04:00:40;9.75;;;8.85;;
29662;SDS011;16578;53.266;7.920;2023-05-08T04:02:56;10.32;;;9.00;;
29662;SDS011;16578;53.266;7.920;2023-05-08T04:05:46;9.90;;;8.93;;
29662;SDS011;16578;53.266;7.920;2023-05-08T04:08:16;10.15;;;9.15;;
29662;SDS011;16578;53.266;7.920;2023-05-08T04:10:49;10.73;;;9.63;;
29662;SDS011;16578;53.266;7.920;2023-05-08T04:13:35;10.27;;;9.27;;
29662;SDS011;16578;53.266;7.920;2023-05-08T04:16:16;10.40;;;9.43;;
29662;SDS011;16578;53.266;7.920;2023-05-08T04:18:46;10.15;;;9.18;;
29662;SDS011;16578;53.266;7.920;2023-05-08T04:21:21;10.48;;;9.55;;
29662;SDS011;16578;53.266;7.920;2023-05-08T04:23:49;10.02;;;9.13;;
29662;SDS011;16578;53.266;7.920;2023-05-08T04:26:15;11.57;;;9.18;;
29662;SDS011;16578;53.266;7.920;2023-05-08T04:28:42;10.13;;;9.20;;
29662;SDS011;16578;53.266;7.920;2023-05-08T04:31:08;10.25;;;9.18;;
29662;SDS011;16578;53.266;7.920;2023-05-08T04:33:34;10.60;;;9.50;;
29662;SDS011;16578;53.266;7.920;2023-05-08T04:36:00;11.30;;;9.80;;
29662;SDS011;16578;53.266;7.920;2023-05-08T04:38:26;11.18;;;10.07;;
29662;SDS011;16578;53.266;7.920;2023-05-08T04:40:52;10.55;;;9.45;;
29662;SDS011;16578;53.266;7.920;2023-05-08T04:43:17;9.98;;;8.95;;
29662;SDS011;16578;53.266;7.920;2023-05-08T04:45:43;10.77;;;9.80;;
29662;SDS011;16578;53.266;7.920;2023-05-08T04:48:09;11.00;;;9.90;;
29662;SDS011;16578;53.266;7.920;2023-05-08T04:50:34;10.65;;;9.65;;
29662;SDS011;16578;53.266;7.920;2023-05-08T04:53:00;9.93;;;9.05;;
29662;SDS011;16578;53.266;7.920;2023-05-08T04:55:25;10.73;;;9.68;;
29662;SDS011;16578;53.266;7.920;2023-05-08T04:57:51;10.95;;;9.45;;
29662;SDS011;16578;53.266;7.920;2023-05-08T05:00:16;10.68;;;9.68;;
29662;SDS011;16578;53.266;7.920;2023-05-08T05:02:42;11.77;;;10.25;;
29662;SDS011;16578;53.266;7.920;2023-05-08T05:05:08;11.02;;;9.90;;
29662;SDS011;16578;53.266;7.920;2023-05-08T05:07:33;10.63;;;9.63;;
29662;SDS011;16578;53.266;7.920;2023-05-08T05:09:59;10.98;;;9.90;;
29662;SDS011;16578;53.266;7.920;2023-05-08T05:12:25;11.02;;;10.00;;
29662;SDS011;16578;53.266;7.920;2023-05-08T05:14:50;9.75;;;8.80;;
29662;SDS011;16578;53.266;7.920;2023-05-08T05:17:16;10.40;;;9.40;;
29662;SDS011;16578;53.266;7.920;2023-05-08T05:19:41;10.82;;;9.65;;
29662;SDS011;16578;53.266;7.920;2023-05-08T05:22:07;10.40;;;9.50;;
29662;SDS011;16578;53.266;7.920;2023-05-08T05:24:32;10.50;;;9.60;;
29662;SDS011;16578;53.266;7.920;2023-05-08T05:27:00;10.30;;;9.38;;
29662;SDS011;16578;53.266;7.920;2023-05-08T05:29:26;9.95;;;9.05;;
29662;SDS011;16578;53.266;7.920;2023-05-08T05:31:52;10.35;;;9.25;;
29662;SDS011;16578;53.266;7.920;2023-05-08T05:34:17;10.45;;;9.55;;
29662;SDS011;16578;53.266;7.920;2023-05-08T05:36:43;10.02;;;8.98;;
29662;SDS011;16578;53.266;7.920;2023-05-08T05:39:09;10.07;;;9.15;;
29662;SDS011;16578;53.266;7.920;2023-05-08T05:41:34;10.65;;;9.70;;
29662;SDS011;16578;53.266;7.920;2023-05-08T05:44:00;9.43;;;8.57;;
29662;SDS011;16578;53.266;7.920;2023-05-08T05:46:26;10.35;;;9.45;;
29662;SDS011;16578;53.266;7.920;2023-05-08T05:48:56;10.82;;;9.80;;
29662;SDS011;16578;53.266;7.920;2023-05-08T05:51:22;10.77;;;9.20;;
29662;SDS011;16578;53.266;7.920;2023-05-08T05:53:48;10.13;;;9.10;;
29662;SDS011;16578;53.266;7.920;2023-05-08T05:56:13;10.07;;;9.05;;
29662;SDS011;16578;53.266;7.920;2023-05-08T05:58:39;9.82;;;8.88;;
29662;SDS011;16578;53.266;7.920;2023-05-08T06:01:08;9.93;;;9.02;;
29662;SDS011;16578;53.266;7.920;2023-05-08T06:03:34;9.38;;;8.57;;
29662;SDS011;16578;53.266;7.920;2023-05-08T06:06:00;9.52;;;8.60;;
29662;SDS011;16578;53.266;7.920;2023-05-08T06:08:26;9.27;;;8.40;;
29662;SDS011;16578;53.266;7.920;2023-05-08T06:10:51;9.45;;;8.52;;
29662;SDS011;16578;53.266;7.920;2023-05-08T06:13:17;8.45;;;7.75;;
29662;SDS011;16578;53.266;7.920;2023-05-08T06:15:42;9.15;;;8.38;;
29662;SDS011;16578;53.266;7.920;2023-05-08T06:18:08;9.65;;;8.75;;
29662;SDS011;16578;53.266;7.920;2023-05-08T06:20:35;9.63;;;8.80;;
29662;SDS011;16578;53.266;7.920;2023-05-08T06:23:02;10.32;;;8.93;;
29662;SDS011;16578;53.266;7.920;2023-05-08T06:25:27;9.68;;;8.68;;
29662;SDS011;16578;53.266;7.920;2023-05-08T06:27:53;8.43;;;7.70;;
29662;SDS011;16578;53.266;7.920;2023-05-08T06:30:18;9.48;;;8.57;;
29662;SDS011;16578;53.266;7.920;2023-05-08T06:32:44;9.90;;;9.00;;
29662;SDS011;16578;53.266;7.920;2023-05-08T06:35:10;9.32;;;8.43;;
29662;SDS011;16578;53.266;7.920;2023-05-08T06:37:36;9.27;;;8.38;;
29662;SDS011;16578;53.266;7.920;2023-05-08T06:40:01;10.02;;;9.13;;
29662;SDS011;16578;53.266;7.920;2023-05-08T06:42:27;9.75;;;8.95;;
29662;SDS011;16578;53.266;7.920;2023-05-08T06:44:53;9.48;;;8.57;;
29662;SDS011;16578;53.266;7.920;2023-05-08T06:47:19;8.95;;;8.15;;
29662;SDS011;16578;53.266;7.920;2023-05-08T06:49:44;9.15;;;8.27;;
29662;SDS011;16578;53.266;7.920;2023-05-08T06:52:10;9.00;;;8.20;;
29662;SDS011;16578;53.266;7.920;2023-05-08T06:54:35;8.85;;;8.05;;
29662;SDS011;16578;53.266;7.920;2023-05-08T06:57:01;8.55;;;7.72;;
29662;SDS011;16578;53.266;7.920;2023-05-08T06:59:27;9.32;;;8.52;;
29662;SDS011;16578;53.266;7.920;2023-05-08T07:01:52;9.95;;;8.32;;
29662;SDS011;16578;53.266;7.920;2023-05-08T07:04:18;8.93;;;8.15;;
29662;SDS011;16578;53.266;7.920;2023-05-08T07:06:43;10.35;;;9.35;;
29662;SDS011;16578;53.266;7.920;2023-05-08T07:09:09;9.23;;;8.38;;
29662;SDS011;16578;53.266;7.920;2023-05-08T07:11:35;8.93;;;8.20;;
29662;SDS011;16578;53.266;7.920;2023-05-08T07:14:01;8.27;;;7.57;;
29662;SDS011;16578;53.266;7.920;2023-05-08T07:16:26;9.02;;;8.23;;
29662;SDS011;16578;53.266;7.920;2023-05-08T07:18:52;9.13;;;8.23;;
29662;SDS011;16578;53.266;7.920;2023-05-08T07:21:17;9.00;;;8.18;;
29662;SDS011;16578;53.266;7.920;2023-05-08T07:23:44;10.13;;;9.18;;
29662;SDS011;16578;53.266;7.920;2023-05-08T07:26:09;9.25;;;8.35;;
29662;SDS011;16578;53.266;7.920;2023-05-08T07:28:35;8.63;;;7.93;;
29662;SDS011;16578;53.266;7.920;2023-05-08T07:31:03;8.68;;;7.78;;
29662;SDS011;16578;53.266;7.920;2023-05-08T07:33:31;9.02;;;8.23;;
29662;SDS011;16578;53.266;7.920;2023-05-08T07:35:57;9.05;;;8.18;;
29662;SDS011;16578;53.266;7.920;2023-05-08T07:38:23;8.98;;;7.80;;
29662;SDS011;16578;53.266;7.920;2023-05-08T07:40:49;8.75;;;7.95;;
29662;SDS011;16578;53.266;7.920;2023-05-08T07:43:15;8.80;;;7.97;;
29662;SDS011;16578;53.266;7.920;2023-05-08T07:45:41;8.77;;;8.05;;
29662;SDS011;16578;53.266;7.920;2023-05-08T07:48:07;9.23;;;8.43;;
29662;SDS011;16578;53.266;7.920;2023-05-08T07:50:32;8.90;;;8.10;;
29662;SDS011;16578;53.266;7.920;2023-05-08T07:52:58;10.95;;;8.65;;
29662;SDS011;16578;53.266;7.920;2023-05-08T07:55:24;9.48;;;8.65;;
29662;SDS011;16578;53.266;7.920;2023-05-08T07:57:49;9.60;;;8.70;;
29662;SDS011;16578;53.266;7.920;2023-05-08T08:00:15;9.02;;;8.13;;
29662;SDS011;16578;53.266;7.920;2023-05-08T08:02:42;8.90;;;8.00;;
29662;SDS011;16578;53.266;7.920;2023-05-08T08:05:08;8.75;;;7.88;;
29662;SDS011;16578;53.266;7.920;2023-05-08T08:07:34;8.75;;;8.02;;
29662;SDS011;16578;53.266;7.920;2023-05-08T08:10:00;8.63;;;7.78;;
29662;SDS011;16578;53.266;7.920;2023-05-08T08:12:26;9.07;;;8.18;;
29662;SDS011;16578;53.266;7.920;2023-05-08T08:14:52;9.02;;;8.23;;
29662;SDS011;16578;53.266;7.920;2023-05-08T08:17:18;9.15;;;8.27;;
29662;SDS011;16578;53.266;7.920;2023-05-08T08:19:43;9.32;;;8.43;;
29662;SDS011;16578;53.266;7.920;2023-05-08T08:22:09;9.00;;;8.20;;
29662;SDS011;16578;53.266;7.920;2023-05-08T08:24:35;9.07;;;8.23;;
29662;SDS011;16578;53.266;7.920;2023-05-08T08:27:00;9.82;;;8.75;;
29662;SDS011;16578;53.266;7.920;2023-05-08T08:29:26;8.77;;;7.97;;
29662;SDS011;16578;53.266;7.920;2023-05-08T08:31:51;9.50;;;8.00;;
29662;SDS011;16578;53.266;7.920;2023-05-08T08:34:17;9.50;;;8.40;;
29662;SDS011;16578;53.266;7.920;2023-05-08T08:36:43;8.75;;;7.97;;
29662;SDS011;16578;53.266;7.920;2023-05-08T08:39:09;8.13;;;7.35;;
29662;SDS011;16578;53.266;7.920;2023-05-08T08:41:35;9.50;;;8.55;;
29662;SDS011;16578;53.266;7.920;2023-05-08T08:44:03;9.80;;;8.88;;
29662;SDS011;16578;53.266;7.920;2023-05-08T08:46:29;10.02;;;7.78;;
29662;SDS011;16578;53.266;7.920;2023-05-08T08:48:57;9.85;;;8.85;;
29662;SDS011;16578;53.266;7.920;2023-05-08T08:51:24;8.48;;;7.68;;
29662;SDS011;16578;53.266;7.920;2023-05-08T08:54:20;9.43;;;8.63;;
29662;SDS011;16578;53.266;7.920;2023-05-08T08:56:48;9.40;;;8.32;;
29662;SDS011;16578;53.266;7.920;2023-05-08T08:59:15;8.90;;;8.07;;
29662;SDS011;16578;53.266;7.920;2023-05-08T09:01:43;9.02;;;8.23;;
29662;SDS011;16578;53.266;7.920;2023-05-08T09:04:11;9.25;;;8.35;;
29662;SDS011;16578;53.266;7.920;2023-05-08T09:06:37;10.25;;;9.10;;
29662;SDS011;16578;53.266;7.920;2023-05-08T09:09:05;8.27;;;7.47;;
29662;SDS011;16578;53.266;7.920;2023-05-08T09:11:30;9.50;;;8.52;;
29662;SDS011;16578;53.266;7.920;2023-05-08T09:13:57;8.50;;;7.70;;
29662;SDS011;16578;53.266;7.920;2023-05-08T09:16:23;9.38;;;8.18;;
29662;SDS011;16578;53.266;7.920;2023-05-08T09:18:49;8.55;;;7.82;;
29662;SDS011;16578;53.266;7.920;2023-05-08T09:21:15;9.55;;;8.05;;
29662;SDS011;16578;53.266;7.920;2023-05-08T09:24:23;9.20;;;8.30;;
29662;SDS011;16578;53.266;7.920;2023-05-08T09:26:37;8.07;;;7.43;;
29662;SDS011;16578;53.266;7.920;2023-05-08T09:29:17;9.65;;;8.25;;
29662;SDS011;16578;53.266;7.920;2023-05-08T09:31:49;9.60;;;8.70;;
29662;SDS011;16578;53.266;7.920;2023-05-08T09:34:28;8.98;;;8.07;;
29662;SDS011;16578;53.266;7.920;2023-05-08T09:39:29;8.70;;;7.90;;
29662;SDS011;16578;53.266;7.920;2023-05-08T09:41:55;9.25;;;8.45;;
29662;SDS011;16578;53.266;7.920;2023-05-08T09:44:22;9.77;;;8.70;;
29662;SDS011;16578;53.266;7.920;2023-05-08T09:46:48;8.43;;;7.68;;
29662;SDS011;16578;53.266;7.920;2023-05-08T09:49:16;9.52;;;8.27;;
29662;SDS011;16578;53.266;7.920;2023-05-08T09:51:50;11.85;;;8.65;;
29662;SDS011;16578;53.266;7.920;2023-05-08T09:54:17;9.75;;;8.85;;
29662;SDS011;16578;53.266;7.920;2023-05-08T09:56:43;9.77;;;8.70;;
29662;SDS011;16578;53.266;7.920;2023-05-08T09:59:25;10.05;;;8.73;;
29662;SDS011;16578;53.266;7.920;2023-05-08T10:01:52;9.35;;;8.45;;
29662;SDS011;16578;53.266;7.920;2023-05-08T10:04:36;8.90;;;8.20;;
29662;SDS011;16578;53.266;7.920;2023-05-08T10:07:02;9.13;;;8.35;;
29662;SDS011;16578;53.266;7.920;2023-05-08T10:09:28;12.13;;;8.27;;
29662;SDS011;16578;53.266;7.920;2023-05-08T10:11:54;8.25;;;7.55;;
29662;SDS011;16578;53.266;7.920;2023-05-08T10:14:22;9.45;;;8.55;;
29662;SDS011;16578;53.266;7.920;2023-05-08T10:16:50;9.88;;;8.93;;
29662;SDS011;16578;53.266;7.920;2023-05-08T10:19:23;9.52;;;7.90;;
29662;SDS011;16578;53.266;7.920;2023-05-08T10:21:52;9.15;;;8.25;;
29662;SDS011;16578;53.266;7.920;2023-05-08T10:24:26;9.63;;;8.27;;
29662;SDS011;16578;53.266;7.920;2023-05-08T10:26:58;7.50;;;6.78;;
29662;SDS011;16578;53.266;7.920;2023-05-08T10:29:40;8.25;;;7.47;;
29662;SDS011;16578;53.266;7.920;2023-05-08T10:32:14;9.10;;;8.05;;
29662;SDS011;16578;53.266;7.920;2023-05-08T10:34:43;8.68;;;7.82;;
29662;SDS011;16578;53.266;7.920;2023-05-08T10:37:11;8.00;;;7.38;;
29662;SDS011;16578;53.266;7.920;2023-05-08T10:39:37;8.45;;;7.65;;
29662;SDS011;16578;53.266;7.920;2023-05-08T10:42:04;9.73;;;8.70;;
29662;SDS011;16578;53.266;7.920;2023-05-08T10:44:30;8.65;;;7.88;;
29662;SDS011;16578;53.266;7.920;2023-05-08T10:47:07;8.90;;;7.97;;
29662;SDS011;16578;53.266;7.920;2023-05-08T10:50:03;8.63;;;7.85;;
29662;SDS011;16578;53.266;7.920;2023-05-08T10:55:22;9.60;;;8.07;;
29662;SDS011;16578;53.266;7.920;2023-05-08T10:58:04;8.93;;;8.02;;
29662;SDS011;16578;53.266;7.920;2023-05-08T11:03:21;9.35;;;8.48;;
29662;SDS011;16578;53.266;7.920;2023-05-08T11:05:50;9.38;;;8.48;;
29662;SDS011;16578;53.266;7.920;2023-05-08T11:08:17;7.97;;;7.28;;
29662;SDS011;16578;53.266;7.920;2023-05-08T11:10:50;9.02;;;8.23;;
29662;SDS011;16578;53.266;7.920;2023-05-08T11:13:41;8.90;;;8.10;;
29662;SDS011;16578;53.266;7.920;2023-05-08T11:16:12;8.75;;;7.95;;
29662;SDS011;16578;53.266;7.920;2023-05-08T11:18:37;10.73;;;8.07;;
29662;SDS011;16578;53.266;7.920;2023-05-08T11:27:14;9.18;;;8.32;;
29662;SDS011;16578;53.266;7.920;2023-05-08T11:29:40;8.55;;;7.85;;
29662;SDS011;16578;53.266;7.920;2023-05-08T11:32:06;8.68;;;7.88;;
29662;SDS011;16578;53.266;7.920;2023-05-08T11:39:36;9.60;;;8.70;;
29662;SDS011;16578;53.266;7.920;2023-05-08T11:44:59;8.17;;;7.47;;
29662;SDS011;16578;53.266;7.920;2023-05-08T11:47:51;8.48;;;7.72;;
29662;SDS011;16578;53.266;7.920;2023-05-08T11:50:24;10.75;;;9.10;;
29662;SDS011;16578;53.266;7.920;2023-05-08T11:52:50;9.52;;;8.65;;
29662;SDS011;16578;53.266;7.920;2023-05-08T11:55:16;10.05;;;8.90;;
29662;SDS011;16578;53.266;7.920;2023-05-08T11:57:43;11.40;;;9.43;;
29662;SDS011;16578;53.266;7.920;2023-05-08T12:00:09;9.75;;;8.77;;
29662;SDS011;16578;53.266;7.920;2023-05-08T12:02:37;9.48;;;8.57;;
29662;SDS011;16578;53.266;7.920;2023-05-08T12:05:07;12.80;;;8.68;;
29662;SDS011;16578;53.266;7.920;2023-05-08T12:07:43;8.95;;;8.15;;
29662;SDS011;16578;53.266;7.920;2023-05-08T12:10:10;11.05;;;9.38;;
29662;SDS011;16578;53.266;7.920;2023-05-08T12:12:36;9.30;;;8.50;;
29662;SDS011;16578;53.266;7.920;2023-05-08T12:15:09;9.43;;;8.52;;
29662;SDS011;16578;53.266;7.920;2023-05-08T12:17:36;9.55;;;8.30;;
29662;SDS011;16578;53.266;7.920;2023-05-08T12:20:12;10.85;;;9.75;;
29662;SDS011;16578;53.266;7.920;2023-05-08T12:22:48;10.30;;;9.30;;
29662;SDS011;16578;53.266;7.920;2023-05-08T12:25:15;10.10;;;9.10;;
29662;SDS011;16578;53.266;7.920;2023-05-08T12:27:42;10.20;;;9.20;;
29662;SDS011;16578;53.266;7.920;2023-05-08T12:30:09;10.13;;;9.23;;
29662;SDS011;16578;53.266;7.920;2023-05-08T12:32:36;9.75;;;8.77;;
29662;SDS011;16578;53.266;7.920;2023-05-08T12:35:04;10.13;;;8.95;;
29662;SDS011;16578;53.266;7.920;2023-05-08T12:37:31;10.10;;;9.10;;
29662;SDS011;16578;53.266;7.920;2023-05-08T12:39:57;10.10;;;9.10;;
29662;SDS011;16578;53.266;7.920;2023-05-08T12:42:39;10.63;;;9.63;;
29662;SDS011;16578;53.266;7.920;2023-05-08T12:45:06;10.88;;;9.77;;
29662;SDS011;16578;53.266;7.920;2023-05-08T12:47:32;11.88;;;10.52;;
29662;SDS011;16578;53.266;7.920;2023-05-08T12:49:58;11.77;;;10.57;;
29662;SDS011;16578;53.266;7.920;2023-05-08T12:52:23;11.48;;;10.38;;
29662;SDS011;16578;53.266;7.920;2023-05-08T12:54:49;10.35;;;9.40;;
29662;SDS011;16578;53.266;7.920;2023-05-08T12:57:15;10.52;;;9.52;;
29662;SDS011;16578;53.266;7.920;2023-05-08T12:59:42;16.15;;;11.05;;
29662;SDS011;16578;53.266;7.920;2023-05-08T13:02:15;12.20;;;10.27;;
29662;SDS011;16578;53.266;7.920;2023-05-08T13:04:42;11.80;;;10.70;;
29662;SDS011;16578;53.266;7.920;2023-05-08T13:07:08;10.00;;;9.10;;
29662;SDS011;16578;53.266;7.920;2023-05-08T13:09:34;11.52;;;10.10;;
29662;SDS011;16578;53.266;7.920;2023-05-08T13:12:00;12.15;;;10.95;;
29662;SDS011;16578;53.266;7.920;2023-05-08T13:14:26;11.35;;;10.30;;
29662;SDS011;16578;53.266;7.920;2023-05-08T13:16:51;11.13;;;10.05;;
29662;SDS011;16578;53.266;7.920;2023-05-08T13:19:17;11.27;;;10.25;;
29662;SDS011;16578;53.266;7.920;2023-05-08T13:21:43;10.88;;;9.82;;
29662;SDS011;16578;53.266;7.920;2023-05-08T13:24:11;10.88;;;9.77;;
29662;SDS011;16578;53.266;7.920;2023-05-08T13:26:38;11.77;;;10.75;;
29662;SDS011;16578;53.266;7.920;2023-05-08T13:29:03;12.80;;;11.60;;
29662;SDS011;16578;53.266;7.920;2023-05-08T13:31:29;12.43;;;11.13;;
29662;SDS011;16578;53.266;7.920;2023-05-08T13:33:54;11.25;;;10.20;;
29662;SDS011;16578;53.266;7.920;2023-05-08T13:36:20;11.43;;;10.27;;
29662;SDS011;16578;53.266;7.920;2023-05-08T13:38:46;11.23;;;10.18;;
29662;SDS011;16578;53.266;7.920;2023-05-08T13:41:11;10.40;;;9.38;;
29662;SDS011;16578;53.266;7.920;2023-05-08T13:43:37;12.18;;;10.57;;
29662;SDS011;16578;53.266;7.920;2023-05-08T13:46:02;10.43;;;9.38;;
29662;SDS011;16578;53.266;7.920;2023-05-08T13:48:28;11.02;;;10.02;;
29662;SDS011;16578;53.266;7.920;2023-05-08T13:50:53;11.43;;;10.23;;
29662;SDS011;16578;53.266;7.920;2023-05-08T13:53:19;11.55;;;10.35;;
29662;SDS011;16578;53.266;7.920;2023-05-08T13:55:44;10.68;;;9.73;;
29662;SDS011;16578;53.266;7.920;2023-05-08T13:58:10;11.18;;;9.32;;
29662;SDS011;16578;53.266;7.920;2023-05-08T14:00:35;9.93;;;8.93;;
29662;SDS011;16578;53.266;7.920;2023-05-08T14:03:01;10.20;;;9.07;;
29662;SDS011;16578;53.266;7.920;2023-05-08T14:05:27;10.35;;;9.35;;
29662;SDS011;16578;53.266;7.920;2023-05-08T14:07:52;15.95;;;9.55;;
29662;SDS011;16578;53.266;7.920;2023-05-08T14:10:18;11.65;;;10.05;;
29662;SDS011;16578;53.266;7.920;2023-05-08T14:12:44;11.00;;;9.90;;
29662;SDS011;16578;53.266;7.920;2023-05-08T14:15:10;9.60;;;8.60;;
29662;SDS011;16578;53.266;7.920;2023-05-08T14:17:36;10.95;;;9.85;;
29662;SDS011;16578;53.266;7.920;2023-05-08T14:20:02;11.80;;;10.70;;
29662;SDS011;16578;53.266;7.920;2023-05-08T14:22:28;10.30;;;9.18;;
29662;SDS011;16578;53.266;7.920;2023-05-08T14:24:53;9.23;;;8.35;;
29662;SDS011;16578;53.266;7.920;2023-05-08T14:27:19;7.80;;;7.10;;
29662;SDS011;16578;53.266;7.920;2023-05-08T14:29:45;8.15;;;7.35;;
29662;SDS011;16578;53.266;7.920;2023-05-08T14:32:10;8.80;;;7.95;;
29662;SDS011;16578;53.266;7.920;2023-05-08T14:34:36;8.63;;;7.70;;
29662;SDS011;16578;53.266;7.920;2023-05-08T14:37:01;8.85;;;7.95;;
29662;SDS011;16578;53.266;7.920;2023-05-08T14:39:27;11.52;;;8.25;;
29662;SDS011;16578;53.266;7.920;2023-05-08T14:41:53;10.13;;;8.60;;
29662;SDS011;16578;53.266;7.920;2023-05-08T14:44:19;9.63;;;8.00;;
29662;SDS011;16578;53.266;7.920;2023-05-08T14:46:44;9.63;;;7.78;;
29662;SDS011;16578;53.266;7.920;2023-05-08T14:49:10;8.75;;;7.75;;
29662;SDS011;16578;53.266;7.920;2023-05-08T14:51:35;9.27;;;7.72;;
29662;SDS011;16578;53.266;7.920;2023-05-08T14:54:01;13.20;;;8.23;;
29662;SDS011;16578;53.266;7.920;2023-05-08T14:56:27;8.63;;;7.82;;
29662;SDS011;16578;53.266;7.920;2023-05-08T14:58:52;9.40;;;8.40;;
29662;SDS011;16578;53.266;7.920;2023-05-08T15:01:19;9.52;;;8.05;;
29662;SDS011;16578;53.266;7.920;2023-05-08T15:03:46;7.97;;;7.18;;
29662;SDS011;16578;53.266;7.920;2023-05-08T15:06:17;8.45;;;7.65;;
29662;SDS011;16578;53.266;7.920;2023-05-08T15:08:43;8.40;;;7.28;;
29662;SDS011;16578;53.266;7.920;2023-05-08T15:11:09;9.07;;;8.18;;
29662;SDS011;16578;53.266;7.920;2023-05-08T15:13:34;9.15;;;7.00;;
29662;SDS011;16578;53.266;7.920;2023-05-08T15:16:00;8.45;;;7.65;;
29662;SDS011;16578;53.266;7.920;2023-05-08T15:18:25;9.38;;;8.48;;
29662;SDS011;16578;53.266;7.920;2023-05-08T15:20:52;9.52;;;8.63;;
29662;SDS011;16578;53.266;7.920;2023-05-08T15:23:18;10.23;;;9.13;;
29662;SDS011;16578;53.266;7.920;2023-05-08T15:25:44;9.77;;;8.25;;
29662;SDS011;16578;53.266;7.920;2023-05-08T15:28:10;11.60;;;7.82;;
29662;SDS011;16578;53.266;7.920;2023-05-08T15:30:36;7.55;;;6.85;;